Weather Data

Pearl Creek Farm: 8878 N Farm Road 75, Walnut Grove MO 65770

<== Previous Day (Monday 09 Mar 2009) | Next Day (Wednesday 11 Mar 2009) ==>

Summary Precipitation Data For Tuesday 10 March 2009

ElementValueUnits
Precipitation0.2"
Notes(none)
SourceSpringfield-Branson National Airport (SGF)

Summary Temperature Data For Tuesday 10 March 2009

ElementValueUnits
High Temperature71 oF
Low Temperature29 oF
Average Temperature56 oF
High Humidity93 %
Low Humidity57 %
Average Humidity73 %
SourceSpringfield-Branson National Airport (SGF)

Detail Temperature Data For Tuesday 10 March 2009

Date / TimeTemp (F)RH (%)Dew Pt (F)Report Date / TimeSource
2009-03-10 14:52:00 68 65 56.0 2017-12-29 19:14:24.89625 Springfield-Branson National Airport (SGF)
2009-03-10 16:52:00 47 93 45.0 2017-12-29 19:14:24.89625 Springfield-Branson National Airport (SGF)
2009-03-10 02:52:00 66 70 56.0 2017-12-29 19:14:24.89625 Springfield-Branson National Airport (SGF)
2009-03-10 03:52:00 67 68 56.0 2017-12-29 19:14:24.89625 Springfield-Branson National Airport (SGF)
2009-03-10 04:52:00 66 68 55.0 2017-12-29 19:14:24.89625 Springfield-Branson National Airport (SGF)
2009-03-10 05:52:00 67 63 54.0 2017-12-29 19:14:24.89625 Springfield-Branson National Airport (SGF)
2009-03-10 06:52:00 65 66 53.0 2017-12-29 19:14:24.89625 Springfield-Branson National Airport (SGF)
2009-03-10 07:52:00 65 66 53.0 2017-12-29 19:14:24.89625 Springfield-Branson National Airport (SGF)
2009-03-10 08:52:00 68 63 55.0 2017-12-29 19:14:24.89625 Springfield-Branson National Airport (SGF)
2009-03-10 09:52:00 68 61 54.0 2017-12-29 19:14:24.89625 Springfield-Branson National Airport (SGF)
2009-03-10 10:52:00 68 63 55.0 2017-12-29 19:14:24.89625 Springfield-Branson National Airport (SGF)
2009-03-10 11:52:00 70 61 56.0 2017-12-29 19:14:24.89625 Springfield-Branson National Airport (SGF)
2009-03-10 13:52:00 70 59 55.0 2017-12-29 19:14:24.89625 Springfield-Branson National Airport (SGF)
2009-03-10 15:52:00 55 83 50.0 2017-12-29 19:14:24.89625 Springfield-Branson National Airport (SGF)
2009-03-10 17:52:00 43 93 41.0 2017-12-29 19:14:24.89625 Springfield-Branson National Airport (SGF)
2009-03-10 18:52:00 37 89 34.0 2017-12-29 19:14:24.89625 Springfield-Branson National Airport (SGF)
2009-03-10 19:52:00 35 85 31.0 2017-12-29 19:14:24.89625 Springfield-Branson National Airport (SGF)
2009-03-10 20:52:00 33 82 28.0 2017-12-29 19:14:24.89625 Springfield-Branson National Airport (SGF)
2009-03-10 00:52:00 66 73 57.0 2017-12-29 19:14:24.89625 Springfield-Branson National Airport (SGF)
2009-03-10 01:52:00 66 73 57.0 2017-12-29 19:14:24.89625 Springfield-Branson National Airport (SGF)
2009-03-10 12:52:00 71 57 55.0 2017-12-29 19:14:24.89625 Springfield-Branson National Airport (SGF)
2009-03-10 21:52:00 32 82 27.0 2017-12-29 19:14:24.89625 Springfield-Branson National Airport (SGF)
2009-03-10 22:52:00 30 82 25.0 2017-12-29 19:14:24.89625 Springfield-Branson National Airport (SGF)
2009-03-10 23:52:00 29 85 25.0 2017-12-29 19:14:24.89625 Springfield-Branson National Airport (SGF)

A total of 24 rows are displayed.